TimeCST,TemperatureF,Dew PointF,Humidity,Sea Level PressureIn,VisibilityMPH,Wind Direction,Wind SpeedMPH,Gust SpeedMPH,PrecipitationIn,Events,Conditions,WindDirDegrees,DateUTC
12:53 AM,48.0,43.0,83,29.94,10.0,South,8.1,-,N/A,,Clear,180,2012-12-19 06:53:00
1:53 AM,50.0,44.1,80,29.95,10.0,South,8.1,-,N/A,,Clear,190,2012-12-19 07:53:00
2:53 AM,50.0,45.0,83,29.95,10.0,South,9.2,-,N/A,,Clear,190,2012-12-19 08:53:00
3:53 AM,48.0,43.0,83,29.95,10.0,South,6.9,-,N/A,,Clear,170,2012-12-19 09:53:00
4:53 AM,50.0,43.0,77,29.95,10.0,South,9.2,-,N/A,,Clear,180,2012-12-19 10:53:00
5:53 AM,48.0,42.1,80,29.96,10.0,South,6.9,-,N/A,,Clear,170,2012-12-19 11:53:00
6:53 AM,51.1,44.1,77,29.97,10.0,South,12.7,-,N/A,,Clear,190,2012-12-19 12:53:00
7:53 AM,53.1,46.0,77,29.99,10.0,South,10.4,-,N/A,,Clear,180,2012-12-19 13:53:00
8:53 AM,57.0,46.0,67,30.00,10.0,South,9.2,-,N/A,,Clear,180,2012-12-19 14:53:00
9:53 AM,63.0,46.0,54,29.99,10.0,South,10.4,-,N/A,,Clear,190,2012-12-19 15:53:00
10:53 AM,68.0,43.0,40,29.96,10.0,South,13.8,-,N/A,,Clear,190,2012-12-19 16:53:00
11:53 AM,69.1,45.0,42,29.94,10.0,SW,12.7,-,N/A,,Clear,220,2012-12-19 17:53:00
12:53 PM,72.0,44.1,37,29.90,10.0,SSE,10.4,-,N/A,,Clear,150,2012-12-19 18:53:00
1:53 PM,73.9,45.0,35,29.87,10.0,South,12.7,-,N/A,,Clear,170,2012-12-19 19:53:00
2:53 PM,73.9,44.1,34,29.86,10.0,South,13.8,-,N/A,,Clear,170,2012-12-19 20:53:00
3:53 PM,72.0,43.0,35,29.86,10.0,SSE,17.3,-,N/A,,Clear,150,2012-12-19 21:53:00
4:53 PM,66.9,46.9,49,29.86,10.0,SSE,6.9,-,N/A,,Clear,150,2012-12-19 22:53:00
5:53 PM,64.9,46.9,52,29.86,10.0,SE,10.4,-,N/A,,Clear,140,2012-12-19 23:53:00
6:53 PM,64.9,48.0,54,29.84,10.0,SE,13.8,-,N/A,,Clear,140,2012-12-20 00:53:00
7:53 PM,66.0,48.0,52,29.83,10.0,SSE,13.8,-,N/A,,Partly Cloudy,150,2012-12-20 01:53:00
8:53 PM,66.0,50.0,56,29.81,10.0,SSE,19.6,25.3,N/A,,Scattered Clouds,160,2012-12-20 02:53:00
9:53 PM,64.9,54.0,68,29.79,10.0,SSE,19.6,27.6,N/A,,Scattered Clouds,160,2012-12-20 03:53:00
10:53 PM,64.9,57.0,75,29.78,10.0,South,17.3,24.2,N/A,,Mostly Cloudy,170,2012-12-20 04:53:00
11:10 PM,64.4,57.2,77,29.77,10.0,SSE,17.3,24.2,N/A,,Overcast,160,2012-12-20 05:10:00
11:53 PM,66.0,59.0,78,29.75,10.0,South,18.4,27.6,N/A,,Overcast,170,2012-12-20 05:53:00